Time;durP1;ratioP1;P1;durP2;ratioP2;P2;SDS_P1;SDS_P2;PMS_P1;PMS_P2;Temp;Humidity;BMP_temperature;BMP_pressure;BME280_temperature;BME280_humidity;BME280_pressure;Samples;Min_cycle;Max_cycle;Signal;HPM_P1;HPM_P2
2022/05/15 00:02:29;;;;;;;0.40;0.30;;;21.60;59.50;;;;;;5041949;28;20068;-42
2022/05/15 00:04:55;;;;;;;0.30;0.30;;;21.60;59.40;;;;;;5043101;28;20120;-42
2022/05/15 00:07:22;;;;;;;0.47;0.38;;;21.60;59.30;;;;;;5061246;28;20063;-42
2022/05/15 00:09:48;;;;;;;0.83;0.47;;;21.60;59.30;;;;;;5060273;28;20401;-41
2022/05/15 00:12:16;;;;;;;0.60;0.50;;;21.60;59.20;;;;;;5061008;28;20270;-41
2022/05/15 00:14:42;;;;;;;0.30;0.30;;;21.60;59.20;;;;;;5060114;28;20557;-42
2022/05/15 00:17:08;;;;;;;0.40;0.30;;;21.60;59.10;;;;;;5063385;28;20426;-42
2022/05/15 00:19:34;;;;;;;0.40;0.32;;;21.70;59.10;;;;;;5099502;28;20044;-42
2022/05/15 00:22:00;;;;;;;0.40;0.32;;;21.70;59.00;;;;;;5098407;28;20043;-42
2022/05/15 00:24:28;;;;;;;0.40;0.40;;;21.70;58.90;;;;;;5102526;28;20024;-42
2022/05/15 00:26:55;;;;;;;0.40;0.40;;;21.70;58.90;;;;;;5086237;28;20085;-41
2022/05/15 00:29:21;;;;;;;;;;;21.70;58.80;;;;;;5078789;28;20029;-41
2022/05/15 00:31:47;;;;;;;0.47;0.40;;;21.70;58.70;;;;;;5081329;28;19981;-42
2022/05/15 00:34:13;;;;;;;0.43;0.30;;;21.70;58.70;;;;;;5081540;28;20028;-42
2022/05/15 00:36:39;;;;;;;0.40;0.40;;;21.70;58.60;;;;;;5081339;28;20103;-42
2022/05/15 00:39:06;;;;;;;0.30;0.30;;;21.70;58.60;;;;;;5081843;28;20553;-42
2022/05/15 00:41:33;;;;;;;0.30;0.30;;;21.80;58.50;;;;;;5086931;28;20072;-42
2022/05/15 00:44:00;;;;;;;0.40;0.30;;;21.80;58.50;;;;;;5076271;28;20043;-40
2022/05/15 00:46:29;;;;;;;0.50;0.38;;;21.80;58.40;;;;;;5082630;28;20055;-39
2022/05/15 00:48:56;;;;;;;0.30;0.30;;;21.80;58.40;;;;;;5099119;28;20024;-39
2022/05/15 00:51:29;;;;;;;0.50;0.20;;;21.80;58.30;;;;;;5083001;28;20024;-39
2022/05/15 00:54:00;;;;;;;0.50;0.50;;;21.80;58.30;;;;;;5097422;28;20397;-39
2022/05/15 00:56:27;;;;;;;1.08;0.40;;;21.80;58.20;;;;;;5081701;28;20537;-39
2022/05/15 00:59:09;;;;;;;0.40;0.40;;;21.90;58.20;;;;;;5070462;28;20025;-39
2022/05/15 01:01:35;;;;;;;0.75;0.30;;;21.90;58.20;;;;;;5089629;28;20078;-42
2022/05/15 01:04:02;;;;;;;0.30;0.30;;;21.90;58.00;;;;;;5103055;28;20053;-42
2022/05/15 01:06:29;;;;;;;0.25;0.25;;;21.90;58.00;;;;;;5101947;28;20058;-40
2022/05/15 01:08:55;;;;;;;0.30;0.30;;;21.90;57.90;;;;;;5080417;28;20032;-43
2022/05/15 01:11:21;;;;;;;0.20;0.20;;;21.90;57.90;;;;;;5089514;28;20556;-42
2022/05/15 01:13:49;;;;;;;0.30;0.30;;;21.90;57.80;;;;;;5099166;28;20099;-40
2022/05/15 01:16:21;;;;;;;0.40;0.40;;;21.90;57.80;;;;;;5088234;28;20025;-43
2022/05/15 01:18:47;;;;;;;0.45;0.25;;;21.90;57.80;;;;;;5045099;28;20072;-42
2022/05/15 01:21:24;;;;;;;1.17;0.50;;;22.00;57.70;;;;;;5062179;28;20053;-41
2022/05/15 01:23:51;;;;;;;0.40;0.30;;;22.00;57.70;;;;;;5062480;28;20055;-42
2022/05/15 01:26:17;;;;;;;0.30;0.30;;;22.00;57.70;;;;;;5062399;28;20029;-42
2022/05/15 01:28:45;;;;;;;0.47;0.30;;;22.00;57.60;;;;;;5079204;28;20040;-42
2022/05/15 01:31:11;;;;;;;0.30;0.30;;;22.00;57.50;;;;;;5086766;28;20173;-41
2022/05/15 01:33:37;;;;;;;0.38;0.25;;;22.00;57.50;;;;;;5080442;28;20056;-43
2022/05/15 01:36:05;;;;;;;0.30;0.30;;;22.00;57.40;;;;;;5082384;28;20021;-42
2022/05/15 01:38:31;;;;;;;0.40;0.30;;;22.00;57.40;;;;;;5078631;28;20031;-42
2022/05/15 01:40:57;;;;;;;0.30;0.30;;;22.00;57.30;;;;;;5082266;28;20501;-42
2022/05/15 01:43:23;;;;;;;0.30;0.30;;;22.00;57.30;;;;;;5084503;28;20017;-42
2022/05/15 01:45:49;;;;;;;0.45;0.32;;;22.00;57.30;;;;;;5085033;28;20047;-42
2022/05/15 01:48:15;;;;;;;0.30;0.30;;;22.00;57.20;;;;;;5081582;28;20116;-42
2022/05/15 01:50:41;;;;;;;0.40;0.30;;;22.00;57.70;;;;;;5085364;28;20526;-43
2022/05/15 01:53:07;;;;;;;0.35;0.35;;;22.10;57.10;;;;;;5087288;28;20033;-40
2022/05/15 01:55:33;;;;;;;0.30;0.30;;;22.10;57.10;;;;;;5087764;28;20039;-39
2022/05/15 01:58:00;;;;;;;0.40;0.30;;;22.10;57.10;;;;;;5077028;28;20028;-39
2022/05/15 02:00:26;;;;;;;0.25;0.25;;;22.10;57.10;;;;;;5086331;28;20024;-39
2022/05/15 02:02:52;;;;;;;0.82;0.55;;;22.10;56.90;;;;;;5084366;28;20043;-39
2022/05/15 02:05:19;;;;;;;0.38;0.38;;;22.10;56.80;;;;;;5080412;28;20040;-38
2022/05/15 02:07:45;;;;;;;0.30;0.30;;;22.10;56.70;;;;;;5093990;28;20034;-39
2022/05/15 02:10:11;;;;;;;0.50;0.50;;;22.10;56.70;;;;;;5099375;28;20055;-39
2022/05/15 02:12:37;;;;;;;0.30;0.20;;;22.10;56.60;;;;;;5102598;28;20020;-39
2022/05/15 02:15:04;;;;;;;0.73;0.30;;;22.10;56.60;;;;;;5088521;28;20033;-40
2022/05/15 02:17:30;;;;;;;0.60;0.40;;;22.10;56.60;;;;;;5086740;28;20047;-40
2022/05/15 02:19:57;;;;;;;0.38;0.38;;;22.10;56.50;;;;;;5069710;28;20045;-40
2022/05/15 02:22:23;;;;;;;0.60;0.50;;;22.10;56.50;;;;;;5074672;28;20044;-39
2022/05/15 02:24:49;;;;;;;0.50;0.50;;;22.10;56.50;;;;;;5088679;28;20093;-41
2022/05/15 02:27:16;;;;;;;0.30;0.30;;;22.10;56.40;;;;;;5097555;28;20050;-38
2022/05/15 02:29:42;;;;;;;0.50;0.40;;;22.10;56.40;;;;;;5074154;28;20034;-42
2022/05/15 02:32:08;;;;;;;0.60;0.40;;;22.10;56.30;;;;;;5072889;28;20033;-40
2022/05/15 02:34:35;;;;;;;0.40;0.40;;;22.10;56.20;;;;;;5072231;28;20024;-39
2022/05/15 02:37:01;;;;;;;0.55;0.40;;;22.10;56.10;;;;;;5076245;28;20386;-40
2022/05/15 02:39:27;;;;;;;0.40;0.40;;;22.10;56.10;;;;;;5074431;28;20389;-41
2022/05/15 02:41:53;;;;;;;0.50;0.50;;;22.10;56.00;;;;;;5075737;28;20227;-32
2022/05/15 02:44:19;;;;;;;0.57;0.50;;;22.10;56.10;;;;;;5079412;28;20521;-32
2022/05/15 02:46:45;;;;;;;0.45;0.43;;;22.10;56.30;;;;;;5081707;28;20440;-32
2022/05/15 02:51:56;;;;;;;0.95;0.50;;;22.10;56.40;;;;;;5077205;28;20080;-33
2022/05/15 02:54:22;;;;;;;2.80;0.60;;;22.10;56.50;;;;;;5081287;28;20512;-32
2022/05/15 02:56:48;;;;;;;1.83;0.45;;;22.20;56.80;;;;;;5092018;28;20025;-32
2022/05/15 02:59:16;;;;;;;1.00;0.60;;;22.10;56.80;;;;;;5076715;28;20044;-32
2022/05/15 03:01:42;;;;;;;2.83;0.65;;;22.20;56.90;;;;;;5078917;28;20063;-33
2022/05/15 03:04:08;;;;;;;2.92;0.80;;;22.20;56.90;;;;;;5081950;28;20020;-32
2022/05/15 03:06:34;;;;;;;1.42;0.70;;;22.20;56.90;;;;;;5073082;28;20033;-32
2022/05/15 03:09:00;;;;;;;11.35;1.30;;;22.20;57.10;;;;;;5075443;28;20028;-32
2022/05/15 03:11:27;;;;;;;9.27;0.63;;;22.20;57.10;;;;;;5079594;28;20036;-32
2022/05/15 03:13:53;;;;;;;4.47;0.80;;;22.20;57.20;;;;;;5068171;28;20557;-32
2022/05/15 03:16:21;;;;;;;2.25;0.70;;;22.20;57.30;;;;;;5073560;28;20060;-32
2022/05/15 03:18:50;;;;;;;6.15;0.73;;;22.10;57.30;;;;;;5091303;28;20083;-32
2022/05/15 03:21:28;;;;;;;1.50;0.60;;;22.20;57.40;;;;;;5070023;28;20087;-32
2022/05/15 03:24:35;;;;;;;3.65;0.80;;;22.20;57.40;;;;;;5082955;28;20039;-33
2022/05/15 03:27:01;;;;;;;3.50;0.50;;;22.20;57.40;;;;;;5081065;28;20020;-32
2022/05/15 03:29:27;;;;;;;1.00;0.70;;;22.20;57.50;;;;;;5080980;28;20024;-32
2022/05/15 03:31:55;;;;;;;0.85;0.63;;;22.20;57.60;;;;;;5089685;28;20020;-32
2022/05/15 03:34:21;;;;;;;4.50;0.90;;;22.20;57.60;;;;;;5085187;28;20089;-32
2022/05/15 03:36:48;;;;;;;2.17;0.85;;;22.20;57.70;;;;;;5088743;28;20033;-33
2022/05/15 03:39:14;;;;;;;;;;;22.20;57.60;;;;;;5068298;28;20112;-33
2022/05/15 03:41:41;;;;;;;3.58;0.50;;;22.20;57.70;;;;;;5071921;28;19991;-33
2022/05/15 03:44:08;;;;;;;4.68;0.80;;;22.20;57.70;;;;;;5076561;28;20044;-33
2022/05/15 03:46:34;;;;;;;2.45;0.82;;;22.20;57.70;;;;;;5079177;28;20050;-33
2022/05/15 03:49:00;;;;;;;5.43;0.90;;;22.20;57.70;;;;;;5084524;28;20024;-33
2022/05/15 03:51:27;;;;;;;2.50;0.68;;;22.20;57.70;;;;;;5084328;28;20854;-33
2022/05/15 03:53:53;;;;;;;3.30;1.00;;;22.20;57.70;;;;;;5084500;28;20111;-33
2022/05/15 03:56:49;;;;;;;2.83;0.93;;;22.20;57.70;;;;;;5081112;28;20032;-33
2022/05/15 04:01:13;;;;;;;3.38;0.95;;;22.20;57.30;;;;;;5076960;28;20407;-33
2022/05/15 04:03:40;;;;;;;;;;;22.20;57.80;;;;;;5072573;28;20108;-33
2022/05/15 04:06:08;;;;;;;2.75;0.90;;;22.20;57.90;;;;;;5060180;28;19913;-33
2022/05/15 04:08:34;;;;;;;1.83;0.80;;;22.20;57.90;;;;;;5041165;28;20037;-34
2022/05/15 04:11:00;;;;;;;1.50;0.73;;;22.20;57.90;;;;;;5041406;28;20065;-34
2022/05/15 04:13:30;;;;;;;0.85;0.70;;;22.20;57.90;;;;;;5059261;28;20028;-33
2022/05/15 04:15:56;;;;;;;1.13;0.73;;;22.20;57.90;;;;;;5057604;28;20037;-33
2022/05/15 04:18:23;;;;;;;2.35;0.70;;;22.20;57.90;;;;;;5060115;28;20029;-33
2022/05/15 04:20:49;;;;;;;3.72;0.95;;;22.20;57.90;;;;;;5057346;28;20033;-34
2022/05/15 04:23:15;;;;;;;2.55;1.00;;;22.20;57.80;;;;;;5058380;28;20029;-33
2022/05/15 04:25:41;;;;;;;1.70;0.88;;;22.20;57.80;;;;;;5063846;28;20059;-33
2022/05/15 04:28:07;;;;;;;2.95;0.93;;;22.20;57.80;;;;;;5058778;28;20022;-32
2022/05/15 04:30:34;;;;;;;2.40;0.98;;;22.20;57.80;;;;;;5056551;28;20021;-32
2022/05/15 04:33:00;;;;;;;2.42;0.90;;;22.20;57.80;;;;;;5058174;28;20057;-35
2022/05/15 04:35:26;;;;;;;8.80;1.00;;;22.20;57.90;;;;;;5056683;28;20025;-35
2022/05/15 04:37:52;;;;;;;2.10;1.05;;;22.20;58.00;;;;;;5061210;28;20048;-35
2022/05/15 04:40:19;;;;;;;6.40;1.13;;;22.30;58.10;;;;;;5057932;28;20073;-62
2022/05/15 04:42:45;;;;;;;7.22;1.20;;;22.30;58.10;;;;;;5050268;28;20045;-34
2022/05/15 04:45:11;;;;;;;8.68;0.90;;;22.20;58.10;;;;;;5055472;28;20045;-35
2022/05/15 04:47:37;;;;;;;9.18;1.10;;;22.30;58.20;;;;;;5060260;28;20060;-34
2022/05/15 04:50:04;;;;;;;7.47;1.00;;;22.20;58.20;;;;;;5060938;28;20040;-34
2022/05/15 04:52:30;;;;;;;3.30;1.10;;;22.30;58.20;;;;;;5060637;28;20171;-36
2022/05/15 04:54:56;;;;;;;10.38;1.13;;;22.30;58.10;;;;;;5055925;28;20152;-37
2022/05/15 04:57:22;;;;;;;8.60;0.90;;;22.30;58.20;;;;;;5059871;28;20033;-34
2022/05/15 04:59:48;;;;;;;7.85;1.35;;;22.30;58.70;;;;;;5057446;28;20076;-34
2022/05/15 05:02:15;;;;;;;4.82;1.10;;;22.30;58.30;;;;;;5060824;28;20017;-34
2022/05/15 05:04:41;;;;;;;7.40;1.10;;;22.30;58.50;;;;;;5056277;28;20140;-33
2022/05/15 05:07:08;;;;;;;7.10;0.90;;;22.30;58.80;;;;;;5060193;28;20128;-35
2022/05/15 05:09:34;;;;;;;2.13;0.80;;;22.30;59.00;;;;;;5057677;28;20025;-34
2022/05/15 05:12:00;;;;;;;3.28;0.90;;;22.40;59.30;;;;;;5043852;28;20037;-34
2022/05/15 05:14:27;;;;;;;3.25;1.10;;;22.50;59.40;;;;;;5045003;28;20025;-46
2022/05/15 05:16:53;;;;;;;5.63;1.27;;;22.50;59.40;;;;;;5041981;28;20079;-34
2022/05/15 05:19:19;;;;;;;7.00;1.25;;;22.40;59.50;;;;;;5043834;28;20042;-34
2022/05/15 05:21:45;;;;;;;3.65;1.10;;;22.40;59.50;;;;;;5042760;28;20485;-34
2022/05/15 05:24:11;;;;;;;1.40;1.02;;;22.40;59.60;;;;;;5052481;28;20695;-34
2022/05/15 05:26:37;;;;;;;6.75;1.10;;;22.40;59.60;;;;;;5044214;28;20025;-34
2022/05/15 05:29:04;;;;;;;3.53;1.00;;;22.40;59.60;;;;;;5042376;28;20029;-34
2022/05/15 05:31:30;;;;;;;2.85;0.90;;;22.40;59.60;;;;;;5043376;28;20072;-34
2022/05/15 05:33:56;;;;;;;3.90;1.35;;;22.40;59.60;;;;;;5042394;28;20446;-34
2022/05/15 05:36:22;;;;;;;3.25;0.90;;;22.40;59.60;;;;;;5044274;28;20041;-34
2022/05/15 05:38:48;;;;;;;2.65;1.05;;;22.40;59.60;;;;;;5049686;28;20025;-34
2022/05/15 05:41:14;;;;;;;1.88;1.10;;;22.40;59.70;;;;;;5046611;28;20041;-34
2022/05/15 05:44:00;;;;;;;2.45;1.05;;;22.40;59.60;;;;;;5039064;28;20029;-34
2022/05/15 05:46:27;;;;;;;10.57;1.27;;;22.40;59.80;;;;;;4994789;28;20042;-34
2022/05/15 05:48:54;;;;;;;6.00;1.02;;;22.40;60.00;;;;;;5004444;28;20038;-35
2022/05/15 05:51:21;;;;;;;3.65;1.15;;;22.40;59.20;;;;;;4991011;28;20099;-35
2022/05/15 05:53:47;;;;;;;3.53;1.10;;;22.40;58.80;;;;;;4991171;28;20127;-34
2022/05/15 05:56:13;;;;;;;1.87;1.20;;;22.40;58.50;;;;;;4994662;28;20046;-34
2022/05/15 05:58:40;;;;;;;3.10;0.90;;;22.40;58.60;;;;;;4986932;28;20389;-34
2022/05/15 06:01:06;;;;;;;2.72;1.08;;;22.40;58.60;;;;;;5001583;28;20054;-34
2022/05/15 06:06:17;;;;;;;2.58;0.88;;;22.40;58.70;;;;;;5021727;28;20624;-34
2022/05/15 06:08:43;;;;;;;1.63;1.10;;;22.40;58.50;;;;;;5002454;28;20109;-34
2022/05/15 06:11:10;;;;;;;3.40;1.10;;;22.40;58.40;;;;;;5000843;28;20042;-34
2022/05/15 06:13:36;;;;;;;1.27;1.17;;;22.40;58.40;;;;;;4996716;28;22097;-34
2022/05/15 06:16:03;;;;;;;2.80;1.07;;;22.40;58.30;;;;;;5000905;28;20044;-34
2022/05/15 06:18:29;;;;;;;1.37;1.00;;;22.40;58.30;;;;;;5002340;28;20030;-34
2022/05/15 06:20:55;;;;;;;1.40;1.00;;;22.40;58.90;;;;;;5000003;28;20047;-34
2022/05/15 06:23:21;;;;;;;3.22;1.20;;;22.40;58.40;;;;;;5013596;28;20045;-34
2022/05/15 06:25:48;;;;;;;3.40;1.30;;;22.40;58.30;;;;;;5041755;28;20033;-34
2022/05/15 06:28:14;;;;;;;1.30;0.90;;;22.40;58.30;;;;;;5040785;28;20048;-35
2022/05/15 06:30:40;;;;;;;1.50;1.20;;;22.30;58.30;;;;;;5043531;28;20021;-34
2022/05/15 06:33:07;;;;;;;2.47;1.00;;;22.30;58.20;;;;;;5041226;28;20036;-36
2022/05/15 06:35:33;;;;;;;0.97;0.60;;;22.30;58.30;;;;;;5039624;28;20603;-34
2022/05/15 06:38:03;;;;;;;6.63;2.22;;;22.30;58.20;;;;;;5042169;28;20356;-34
2022/05/15 06:40:29;;;;;;;1.50;1.20;;;22.30;58.30;;;;;;5043453;28;20033;-33
2022/05/15 06:42:57;;;;;;;1.85;1.23;;;22.30;58.30;;;;;;5042132;28;20056;-34
2022/05/15 06:45:23;;;;;;;1.30;1.17;;;22.30;58.10;;;;;;5041521;28;20116;-34
2022/05/15 06:47:50;;;;;;;1.40;1.30;;;22.30;58.10;;;;;;5045264;28;20018;-34
2022/05/15 06:50:16;;;;;;;1.10;1.00;;;22.30;58.10;;;;;;5042810;28;20041;-34
2022/05/15 06:52:42;;;;;;;1.15;1.02;;;22.30;58.10;;;;;;5041958;28;20079;-34
2022/05/15 06:55:10;;;;;;;1.85;1.17;;;22.30;58.10;;;;;;5041349;28;20037;-34
2022/05/15 06:57:37;;;;;;;2.47;1.27;;;22.30;58.00;;;;;;5041654;28;20045;-34
2022/05/15 07:00:06;;;;;;;1.90;1.20;;;22.30;58.00;;;;;;5037480;28;20097;-34
2022/05/15 07:02:32;;;;;;;1.92;1.10;;;22.30;58.00;;;;;;5042507;28;20075;-35
2022/05/15 07:04:58;;;;;;;1.80;1.27;;;22.30;58.00;;;;;;5046320;28;20566;-34
2022/05/15 07:07:25;;;;;;;1.83;1.00;;;22.30;57.90;;;;;;5041598;28;20048;-35
2022/05/15 07:09:51;;;;;;;2.07;1.10;;;22.30;57.90;;;;;;5044420;28;20036;-34
2022/05/15 07:12:17;;;;;;;1.55;1.20;;;22.30;57.90;;;;;;5050272;28;20045;-34
2022/05/15 07:14:43;;;;;;;2.78;0.93;;;22.30;57.90;;;;;;5043097;28;20029;-35
2022/05/15 07:17:10;;;;;;;1.75;1.10;;;22.20;57.70;;;;;;5048440;28;20030;-34
2022/05/15 07:19:36;;;;;;;3.90;1.35;;;22.20;57.80;;;;;;5043051;28;20044;-34
2022/05/15 07:22:02;;;;;;;1.60;1.25;;;22.20;57.80;;;;;;5041684;28;20058;-35
2022/05/15 07:24:28;;;;;;;1.35;0.95;;;22.20;57.80;;;;;;5041277;28;20048;-35
2022/05/15 07:26:54;;;;;;;1.90;1.17;;;22.20;57.70;;;;;;5045586;28;20032;-34
2022/05/15 07:29:24;;;;;;;1.25;1.13;;;22.20;57.70;;;;;;5042657;28;20025;-34
2022/05/15 07:31:51;;;;;;;2.25;1.00;;;22.20;57.70;;;;;;5041339;28;20571;-35
2022/05/15 07:34:18;;;;;;;1.52;1.10;;;22.20;57.60;;;;;;5047766;28;20032;-35
2022/05/15 07:36:44;;;;;;;1.73;1.02;;;22.20;57.80;;;;;;5040825;28;20049;-34
2022/05/15 07:39:11;;;;;;;1.80;1.23;;;22.20;57.70;;;;;;5044622;28;20037;-35
2022/05/15 07:41:37;;;;;;;1.63;1.20;;;22.20;57.70;;;;;;5043418;28;20406;-34
2022/05/15 07:44:03;;;;;;;1.33;1.15;;;22.20;57.80;;;;;;5040387;28;20041;-34
2022/05/15 07:46:29;;;;;;;1.38;1.10;;;22.20;58.30;;;;;;5042324;28;20062;-34
2022/05/15 07:48:55;;;;;;;1.83;1.00;;;22.20;57.70;;;;;;5041588;28;20181;-34
2022/05/15 07:51:22;;;;;;;1.63;1.40;;;22.20;57.80;;;;;;5042353;28;20064;-34
2022/05/15 07:53:48;;;;;;;1.20;1.08;;;22.10;57.70;;;;;;5036527;28;20064;-34
2022/05/15 07:56:14;;;;;;;2.20;1.38;;;22.10;57.60;;;;;;5038588;28;20080;-34
2022/05/15 07:58:41;;;;;;;2.05;1.20;;;22.10;57.70;;;;;;5035565;28;20033;-34
2022/05/15 08:01:07;;;;;;;1.45;1.13;;;22.10;57.60;;;;;;5041981;28;20049;-34
2022/05/15 08:03:37;;;;;;;1.55;1.20;;;22.10;57.70;;;;;;5040888;28;20033;-34
2022/05/15 08:08:48;;;;;;;1.42;1.10;;;22.10;57.70;;;;;;5045911;28;20051;-34
2022/05/15 08:11:14;;;;;;;1.50;1.20;;;22.10;57.50;;;;;;5043071;28;20030;-35
2022/05/15 08:13:41;;;;;;;1.85;1.05;;;22.10;57.80;;;;;;5043274;28;20036;-34
2022/05/15 08:16:08;;;;;;;1.80;1.38;;;22.10;57.70;;;;;;5046778;28;20030;-35
2022/05/15 08:24:04;;;;;;;1.77;1.13;;;22.10;57.50;;;;;;5046582;28;20032;-34
2022/05/15 08:26:30;;;;;;;1.65;1.20;;;22.10;57.70;;;;;;5043211;28;20033;-35
2022/05/15 08:28:57;;;;;;;1.52;1.17;;;22.00;57.50;;;;;;5044846;28;20056;-36
2022/05/15 08:31:24;;;;;;;1.30;1.20;;;22.00;57.40;;;;;;5044218;28;20036;-35
2022/05/15 08:33:50;;;;;;;1.35;1.15;;;22.00;57.50;;;;;;5043654;28;20029;-35
2022/05/15 08:36:16;;;;;;;1.70;1.40;;;22.00;57.40;;;;;;5046174;28;20085;-33
2022/05/15 08:38:44;;;;;;;1.30;1.20;;;22.00;57.50;;;;;;5050041;28;20025;-34
2022/05/15 08:41:17;;;;;;;1.50;1.00;;;22.00;57.40;;;;;;5040872;28;20042;-34
2022/05/15 08:44:11;;;;;;;1.38;1.20;;;22.00;57.50;;;;;;5041064;28;20034;-34
2022/05/15 08:46:51;;;;;;;1.58;1.30;;;22.00;57.50;;;;;;5023396;28;20041;-34
2022/05/15 08:49:30;;;;;;;1.50;1.20;;;22.00;57.40;;;;;;5045180;28;20029;-35
2022/05/15 08:52:11;;;;;;;1.40;1.30;;;22.00;57.50;;;;;;5045439;28;20043;-35
2022/05/15 08:55:16;;;;;;;1.35;1.17;;;21.90;57.50;;;;;;5044244;28;20021;-35
2022/05/15 08:58:04;;;;;;;2.22;1.30;;;21.90;57.40;;;;;;5042067;28;20042;-35
2022/05/15 09:00:46;;;;;;;1.70;1.20;;;21.90;57.60;;;;;;5043988;28;20107;-35
2022/05/15 09:03:24;;;;;;;1.42;1.23;;;21.90;57.60;;;;;;5043744;28;20028;-35
2022/05/15 09:05:53;;;;;;;1.85;1.33;;;21.90;57.70;;;;;;5043242;28;20036;-35
2022/05/15 09:08:20;;;;;;;1.33;1.10;;;21.90;57.80;;;;;;5059938;28;20484;-34
2022/05/15 09:10:47;;;;;;;1.67;1.40;;;21.90;57.90;;;;;;5045555;28;20059;-35
2022/05/15 09:13:30;;;;;;;2.05;1.10;;;21.90;58.00;;;;;;5045094;28;20124;-35
2022/05/15 09:16:01;;;;;;;1.27;1.10;;;21.90;58.10;;;;;;5043904;28;20053;-34
2022/05/15 09:18:33;;;;;;;1.15;1.05;;;21.90;58.00;;;;;;5052501;28;20029;-35
2022/05/15 09:21:09;;;;;;;1.70;1.30;;;21.90;58.00;;;;;;5042127;28;20573;-34
2022/05/15 09:23:39;;;;;;;1.35;1.10;;;21.90;57.90;;;;;;5030141;28;20018;-34
2022/05/15 09:26:16;;;;;;;1.10;0.90;;;21.90;58.00;;;;;;5042496;28;20113;-35
2022/05/15 09:28:50;;;;;;;1.60;1.17;;;21.90;58.10;;;;;;5038134;28;20053;-35
2022/05/15 09:31:38;;;;;;;1.40;1.30;;;21.80;57.90;;;;;;5030880;28;20098;-34
2022/05/15 09:34:29;;;;;;;1.30;1.08;;;21.80;58.00;;;;;;5040612;28;20037;-34
2022/05/15 09:39:43;;;;;;;1.95;1.42;;;21.80;58.00;;;;;;5024743;28;20040;-34
2022/05/15 09:45:23;;;;;;;1.40;1.20;;;21.80;58.00;;;;;;5042570;28;20037;-34
2022/05/15 09:47:52;;;;;;;1.80;1.27;;;21.80;58.20;;;;;;5042658;28;20029;-34
2022/05/15 09:50:42;;;;;;;1.85;1.50;;;21.80;58.20;;;;;;5043915;28;20060;-34
2022/05/15 09:53:25;;;;;;;2.30;1.38;;;21.80;58.70;;;;;;5043652;28;20044;-35
2022/05/15 09:56:08;;;;;;;1.75;1.35;;;21.80;58.30;;;;;;5043401;28;20033;-35
2022/05/15 09:58:39;;;;;;;1.77;1.40;;;21.80;58.20;;;;;;5040923;28;20075;-34
2022/05/15 10:01:33;;;;;;;1.45;1.02;;;21.80;58.40;;;;;;5043714;28;20053;-35
2022/05/15 10:03:59;;;;;;;1.30;1.20;;;21.80;58.30;;;;;;5052162;28;20025;-34
2022/05/15 10:06:28;;;;;;;1.63;1.53;;;21.70;58.30;;;;;;5043553;28;20025;-35
2022/05/15 10:09:15;;;;;;;1.23;1.13;;;21.70;58.40;;;;;;5027205;28;20033;-34
2022/05/15 10:11:44;;;;;;;1.85;1.40;;;21.70;58.40;;;;;;5050178;28;20492;-35
2022/05/15 10:14:27;;;;;;;1.77;1.38;;;21.70;58.30;;;;;;5056490;28;20028;-35
2022/05/15 10:16:55;;;;;;;1.73;1.27;;;21.70;58.30;;;;;;5044664;28;20628;-35
2022/05/15 10:19:32;;;;;;;1.52;1.20;;;21.70;58.20;;;;;;5056248;28;20032;-35
2022/05/15 10:22:11;;;;;;;2.67;1.20;;;21.70;58.20;;;;;;5041982;28;20056;-35
2022/05/15 10:24:40;;;;;;;1.58;1.30;;;21.70;58.20;;;;;;5034133;28;20121;-34
2022/05/15 10:27:22;;;;;;;2.10;1.20;;;21.70;58.10;;;;;;5039495;28;20030;-34
2022/05/15 10:29:56;;;;;;;2.55;1.17;;;21.70;58.20;;;;;;5043915;28;20037;-34
2022/05/15 10:33:06;;;;;;;1.40;1.20;;;21.70;58.10;;;;;;5050237;28;20038;-34
2022/05/15 10:35:49;;;;;;;1.67;1.30;;;21.70;58.20;;;;;;5030749;28;20033;-34
2022/05/15 10:38:32;;;;;;;1.20;1.10;;;21.60;58.00;;;;;;5063897;28;20021;-34
2022/05/15 10:41:30;;;;;;;1.58;1.20;;;21.60;58.10;;;;;;5023129;28;20060;-35
2022/05/15 10:44:09;;;;;;;1.30;1.20;;;21.60;58.10;;;;;;5047842;28;20051;-35
2022/05/15 10:46:46;;;;;;;1.15;1.05;;;21.60;58.10;;;;;;5056697;28;20825;-34
2022/05/15 10:49:20;;;;;;;1.83;1.23;;;21.60;58.20;;;;;;5042032;28;20452;-34
2022/05/15 10:52:11;;;;;;;3.00;1.33;;;21.60;58.30;;;;;;5041665;28;20052;-34
2022/05/15 10:57:47;;;;;;;1.98;1.25;;;21.60;58.30;;;;;;5023134;28;20045;-34
2022/05/15 11:00:38;;;;;;;2.10;1.23;;;21.60;58.30;;;;;;5038490;28;20114;-34
2022/05/15 11:03:19;;;;;;;1.55;1.20;;;21.60;58.30;;;;;;5032837;28;20029;-34
2022/05/15 11:06:01;;;;;;;1.23;1.13;;;21.60;58.40;;;;;;5043274;28;20026;-34
2022/05/15 11:08:39;;;;;;;1.48;1.20;;;21.60;58.40;;;;;;5045462;28;20093;-34
2022/05/15 11:11:33;;;;;;;1.38;1.17;;;21.60;58.40;;;;;;5044104;28;20024;-41
2022/05/15 11:14:21;;;;;;;2.90;1.23;;;21.60;58.40;;;;;;5045669;28;20153;-34
2022/05/15 11:17:05;;;;;;;1.75;1.25;;;21.60;58.50;;;;;;5056441;28;20853;-35
2022/05/15 11:19:36;;;;;;;1.80;1.10;;;21.60;58.50;;;;;;5043968;28;20055;-34
2022/05/15 11:22:18;;;;;;;1.20;1.10;;;21.50;58.40;;;;;;5055344;28;20136;-34
2022/05/15 11:24:44;;;;;;;1.90;1.05;;;21.50;58.40;;;;;;5043312;28;20039;-33
2022/05/15 11:27:22;;;;;;;1.52;1.42;;;21.50;58.40;;;;;;5049081;28;20116;-34
2022/05/15 11:29:50;;;;;;;1.38;1.27;;;21.50;58.40;;;;;;5047275;28;20033;-34
2022/05/15 11:32:32;;;;;;;1.48;1.30;;;21.50;58.30;;;;;;5042486;28;20100;-34
2022/05/15 11:35:17;;;;;;;1.17;1.05;;;21.50;58.40;;;;;;5045585;28;20036;-33
2022/05/15 11:38:05;;;;;;;1.27;1.17;;;21.50;58.40;;;;;;5040254;28;20017;-34
2022/05/15 11:40:45;;;;;;;1.57;1.40;;;21.50;58.40;;;;;;5022389;28;20037;-34
2022/05/15 11:43:26;;;;;;;1.70;1.15;;;21.50;58.30;;;;;;5045635;28;20278;-34
2022/05/15 11:46:04;;;;;;;1.70;1.20;;;21.50;58.30;;;;;;5025476;28;20030;-34
2022/05/15 11:48:43;;;;;;;1.08;0.98;;;21.50;58.30;;;;;;5032627;28;20025;-34
2022/05/15 11:51:14;;;;;;;1.63;1.30;;;21.50;58.20;;;;;;5041654;28;20038;-33
2022/05/15 11:54:02;;;;;;;1.83;1.10;;;21.50;58.10;;;;;;5048023;28;20017;-34
2022/05/15 11:56:39;;;;;;;1.50;1.33;;;21.40;58.20;;;;;;5044684;28;20041;-33
2022/05/15 11:59:16;;;;;;;1.20;1.07;;;21.40;58.30;;;;;;5031107;28;20076;-34
2022/05/15 12:01:46;;;;;;;1.42;1.20;;;21.40;58.30;;;;;;5040175;28;20361;-34
2022/05/15 12:04:21;;;;;;;1.55;1.30;;;21.40;58.20;;;;;;5042167;28;20028;-34
2022/05/15 12:07:10;;;;;;;1.67;1.40;;;21.40;58.20;;;;;;5031399;28;20053;-34
2022/05/15 12:09:39;;;;;;;1.23;1.13;;;21.40;58.20;;;;;;5040486;28;20426;-34
2022/05/15 12:12:24;;;;;;;1.45;1.20;;;21.40;58.10;;;;;;5046345;28;20029;-35
2022/05/15 12:15:16;;;;;;;1.50;1.30;;;21.40;58.10;;;;;;5036324;28;20057;-34
2022/05/15 12:18:01;;;;;;;0.98;0.98;;;21.40;58.20;;;;;;5037869;28;20030;-34
2022/05/15 12:20:29;;;;;;;1.50;1.40;;;21.40;58.20;;;;;;5041974;28;20037;-34
2022/05/15 12:23:13;;;;;;;1.20;1.02;;;21.40;58.10;;;;;;5034518;28;20034;-34
2022/05/15 12:26:16;;;;;;;1.60;1.30;;;21.40;58.10;;;;;;5025949;28;20065;-34
2022/05/15 12:29:01;;;;;;;1.27;1.17;;;21.40;58.20;;;;;;5043265;28;20453;-43
2022/05/15 12:31:33;;;;;;;1.48;1.20;;;21.30;58.10;;;;;;5045222;28;20029;-43
2022/05/15 12:34:16;;;;;;;3.00;1.10;;;21.30;58.20;;;;;;5060444;28;20056;-43
2022/05/15 12:36:50;;;;;;;1.30;1.17;;;21.30;58.30;;;;;;5045559;28;20117;-43
2022/05/15 12:39:22;;;;;;;1.42;1.33;;;21.30;58.30;;;;;;5034446;28;20022;-42
2022/05/15 12:41:48;;;;;;;1.60;1.40;;;21.30;58.30;;;;;;5044395;28;20586;-43
2022/05/15 12:44:14;;;;;;;1.65;1.30;;;21.30;58.30;;;;;;5048317;28;20063;-43
2022/05/15 12:46:52;;;;;;;1.30;1.20;;;21.30;58.40;;;;;;5053865;28;20025;-43
2022/05/15 12:49:28;;;;;;;;;;;21.30;58.40;;;;;;5046747;28;20029;-43
2022/05/15 12:51:54;;;;;;;1.13;1.00;;;21.30;58.50;;;;;;5033170;28;19913;-42
2022/05/15 12:54:27;;;;;;;1.30;1.20;;;21.30;58.60;;;;;;5048288;28;20033;-43
2022/05/15 12:57:04;;;;;;;1.30;1.20;;;21.30;58.70;;;;;;5044602;28;20033;-43
2022/05/15 12:59:35;;;;;;;1.52;1.20;;;21.30;58.70;;;;;;5038255;28;20590;-43
2022/05/15 13:02:14;;;;;;;1.77;1.08;;;21.30;58.80;;;;;;5043976;28;20049;-42
2022/05/15 13:04:45;;;;;;;1.95;1.20;;;21.30;58.90;;;;;;5045152;28;20029;-43
2022/05/15 13:07:11;;;;;;;1.27;1.17;;;21.30;58.90;;;;;;5043978;28;20055;-42
2022/05/15 13:09:39;;;;;;;0.93;0.85;;;21.30;59.00;;;;;;5045309;28;20148;-43
2022/05/15 13:12:07;;;;;;;1.05;0.95;;;21.30;59.00;;;;;;5041790;28;20112;-42
2022/05/15 13:14:41;;;;;;;1.33;1.02;;;21.30;59.10;;;;;;5035225;28;20036;-42
2022/05/15 13:17:07;;;;;;;1.40;1.00;;;21.30;59.10;;;;;;5047255;28;20071;-43
2022/05/15 13:19:35;;;;;;;1.25;1.10;;;21.30;59.20;;;;;;5064878;28;20068;-43
2022/05/15 13:22:01;;;;;;;1.98;1.27;;;21.30;59.30;;;;;;5044683;28;20091;-43
2022/05/15 13:24:29;;;;;;;1.13;1.02;;;21.30;59.30;;;;;;5042078;28;20042;-43
2022/05/15 13:26:56;;;;;;;1.10;1.00;;;21.30;59.40;;;;;;5042257;28;20032;-43
2022/05/15 13:29:23;;;;;;;1.33;1.10;;;21.30;59.40;;;;;;5040640;28;20048;-43
2022/05/15 13:31:51;;;;;;;1.30;1.20;;;21.30;60.10;;;;;;5043996;28;20021;-44